MDT,Max TemperatureF,Mean TemperatureF,Min TemperatureF,Max Dew PointF,MeanDew PointF,Min DewpointF,Max Humidity, Mean Humidity, Min Humidity, Max Sea Level PressureIn, Mean Sea Level PressureIn, Min Sea Level PressureIn, Max VisibilityMiles, Mean VisibilityMiles, Min VisibilityMiles, Max Wind SpeedMPH, Mean Wind SpeedMPH, Max Gust SpeedMPH,PrecipitationIn, CloudCover, Events, WindDirDegrees
2013-10-1,68,52,35,43,36,30,85,60,34,30.00,29.91,29.83,10,10,10,10,7,12,0.00,0,,203
2013-10-2,58,48,37,42,36,30,89,65,40,30.13,30.03,29.90,10,10,7,25,8,32,0.45,5,Rain,298
2013-10-3,43,38,32,41,37,30,96,89,82,30.26,30.01,29.90,10,5,1,25,13,31,0.87,8,Rain-Snow,15
2013-10-4,35,33,30,31,29,26,100,85,70,30.47,30.34,30.19,10,3,0,28,19,33,0.23,7,Fog-Snow,302
2013-10-5,46,34,21,31,24,17,81,63,45,30.42,30.31,30.18,20,10,10,20,7,24,0.00,1,,295
2013-10-6,61,46,31,40,33,29,82,59,36,30.27,30.18,30.08,10,10,10,18,3,20,0.00,0,,216
2013-10-7,64,46,28,45,35,24,85,66,46,30.08,29.87,29.69,10,10,10,10,2,14,0.00,0,,329
2013-10-8,62,52,41,40,36,32,76,56,35,29.94,29.78,29.67,10,10,10,17,7,22,0.00,2,,184
2013-10-9,59,48,36,39,37,34,86,65,43,30.08,29.99,29.90,10,10,10,15,5,20,T,3,Rain,87
2013-10-10,53,43,32,41,37,31,96,80,63,29.86,29.76,29.69,10,10,10,24,8,29,T,4,,308
2013-10-11,50,39,28,42,35,26,89,71,52,30.09,29.90,29.72,10,10,10,41,19,49,0.04,5,Rain,307
2013-10-12,55,40,24,35,28,21,85,60,35,30.20,30.15,30.09,10,10,10,17,4,21,0.00,0,,108
2013-10-13,47,39,30,38,34,28,92,79,65,30.20,30.14,30.08,10,10,10,18,6,22,0.03,5,Rain,298
2013-10-14,39,36,33,37,31,27,96,83,70,30.44,30.24,30.06,10,4,0,29,19,35,0.48,8,Fog-Rain-Snow,300
2013-10-15,48,35,21,29,25,20,88,63,38,30.45,30.34,30.21,10,10,10,16,7,32,0.00,3,,279
2013-10-16,55,38,20,34,24,15,84,54,24,30.19,30.12,30.05,10,10,10,30,9,36,0.01,2,Rain,321
2013-10-17,44,38,32,34,31,28,96,77,57,30.24,30.18,30.12,10,10,9,22,9,25,0.01,7,,315
2013-10-18,50,42,33,32,28,24,89,64,39,30.27,30.15,30.00,10,8,2,25,13,32,0.01,7,Snow,302
2013-10-19,61,45,29,39,29,24,89,59,29,30.01,29.94,29.87,10,10,7,29,9,35,0.06,2,Rain,320
2013-10-20,46,41,35,39,36,32,92,81,70,30.12,30.05,29.96,10,10,5,30,11,37,0.17,7,Rain,304
2013-10-21,58,48,37,37,35,33,92,68,43,30.09,30.07,30.03,10,10,10,26,10,32,0.00,8,,306
2013-10-22,65,51,36,39,36,33,85,62,39,30.13,30.10,30.07,10,10,10,15,8,20,0.00,1,,294
2013-10-23,59,46,33,40,36,29,89,68,47,30.27,30.20,30.09,10,10,10,14,5,19,0.00,2,,15
2013-10-24,59,44,29,40,34,27,92,72,51,30.32,30.25,30.18,10,10,3,9,2,14,0.00,1,,30
2013-10-25,66,47,28,40,33,26,92,61,29,30.31,30.19,30.13,10,10,10,26,6,32,0.00,0,,315
2013-10-26,70,49,27,38,30,24,85,54,22,30.32,30.19,29.98,10,10,10,8,2,9,0.00,0,,126
2013-10-27,63,47,31,35,30,25,79,53,27,30.04,29.91,29.82,10,10,10,13,5,15,0.00,1,,2
2013-10-28,39,35,30,33,29,25,92,84,76,30.22,30.13,30.06,10,6,0,22,11,35,0.10,8,Fog-Snow,91
2013-10-29,34,31,28,29,26,23,85,79,72,30.14,30.04,29.88,10,10,10,16,4,21,0.00,8,,137
2013-10-30,50,37,23,36,28,21,100,75,50,29.94,29.86,29.80,10,8,0,15,4,18,0.00,4,Fog,229
2013-10-31,54,40,25,35,29,21,89,69,48,29.93,29.84,29.74,10,10,10,38,12,47,0.01,3,Rain,291